RXA12O YMEN-YMEN
Flight info
| Callsign | RXA12O |
|---|---|
| Flight time | 0h 5m |
| Altitude | 8000 |
| Route | EN8/17 YKII/N0178F070 KIIEA YMEN/17 |
| Aircraft | C208/L-SDFGR/C |
Departure
| Time | 2026-04-19 06:13 |
|---|---|
| Airport | Melbourne Essendon Airport (YMEN) |
Arrival
| Time | 2026-04-19 06:19 |
|---|---|
| Airport | Melbourne Essendon Airport (YMEN) |
| Time | Latitude | Longitude | Altitude | Speed | Heading |
|---|---|---|---|---|---|
| 2026-04-19 06:13 | -37.84691 | 145.00025 | 4184 ft | 136 kts | 1° |
| 2026-04-19 06:13 | -37.83711 | 145.00094 | 3808 ft | 149 kts | 2° |
| 2026-04-19 06:13 | -37.82651 | 145.00166 | 3418 ft | 155 kts | 2° |
| 2026-04-19 06:13 | -37.81599 | 145.00242 | 3015 ft | 148 kts | 2° |
| 2026-04-19 06:14 | -37.80593 | 145.00321 | 2715 ft | 138 kts | 2° |
| 2026-04-19 06:14 | -37.79741 | 145.00395 | 2700 ft | 113 kts | 1° |
| 2026-04-19 06:14 | -37.78932 | 145.00461 | 2706 ft | 123 kts | 1° |
| 2026-04-19 06:14 | -37.78045 | 145.00523 | 2713 ft | 132 kts | 2° |
| 2026-04-19 06:15 | -37.77101 | 145.00589 | 2711 ft | 138 kts | 2° |
| 2026-04-19 06:15 | -37.76134 | 145.00661 | 2711 ft | 140 kts | 1° |
| 2026-04-19 06:15 | -37.75154 | 145.00630 | 2654 ft | 144 kts | 349° |
| 2026-04-19 06:15 | -37.74169 | 145.00268 | 2515 ft | 150 kts | 338° |
| 2026-04-19 06:16 | -37.73217 | 144.99744 | 2408 ft | 151 kts | 333° |
| 2026-04-19 06:16 | -37.72384 | 144.98932 | 2163 ft | 153 kts | 303° |
| 2026-04-19 06:16 | -37.72237 | 144.97685 | 1684 ft | 136 kts | 259° |
| 2026-04-19 06:16 | -37.72485 | 144.96509 | 1301 ft | 136 kts | 257° |
| 2026-04-19 06:17 | -37.72696 | 144.95425 | 1057 ft | 120 kts | 255° |
| 2026-04-19 06:17 | -37.72872 | 144.94454 | 839 ft | 104 kts | 258° |
| 2026-04-19 06:17 | -37.72957 | 144.93655 | 673 ft | 86 kts | 263° |
| 2026-04-19 06:17 | -37.72988 | 144.93150 | 574 ft | 84 kts | 265° |
| 2026-04-19 06:18 | -37.73031 | 144.92425 | 430 ft | 81 kts | 263° |
| 2026-04-19 06:18 | -37.73062 | 144.91745 | 320 ft | 76 kts | 265° |
| 2026-04-19 06:18 | -37.73088 | 144.91078 | 252 ft | 75 kts | 266° |
| 2026-04-19 06:18 | -37.73106 | 144.90499 | 257 ft | 59 kts | 268° |
| 2026-04-19 06:19 | -37.73130 | 144.90020 | 260 ft | 38 kts | 264° |
| 2026-04-19 06:19 | -37.73132 | 144.89953 | 262 ft | 8 kts | 88° |
| 2026-04-19 06:19 | -37.73091 | 144.90012 | 260 ft | 11 kts | 355° |
| 2026-04-19 06:19 | -37.73031 | 144.89999 | 260 ft | 0 kts | 349° |
| 2026-04-19 06:20 | -37.73025 | 144.89998 | 261 ft | 2 kts | 4° |
| 2026-04-19 06:20 | -37.72985 | 144.90001 | 261 ft | 11 kts | 2° |
| 2026-04-19 06:20 | -37.72939 | 144.89873 | 263 ft | 28 kts | 282° |
| 2026-04-19 06:20 | -37.72908 | 144.89556 | 272 ft | 40 kts | 279° |
| 2026-04-19 06:21 | -37.72861 | 144.89244 | 270 ft | 30 kts | 284° |
| 2026-04-19 06:21 | -37.72807 | 144.89181 | 263 ft | 4 kts | 313° |
| 2026-04-19 06:21 | -37.72795 | 144.89169 | 262 ft | 0 kts | 335° |